Latest Weather Observations for Port Fairy

IDV60801

Issued at 4:33 pm EST Sunday 11 April 2021 (issued every 10 minutes, with the page automatically refreshed every 10 minutes)

About weather observations | Map of weather stations | Latest weather observations for VIC | Other Formats
Station Details ID: 090175 Name: PORT FAIRY AWS Lat: -38.39 Lon: 142.23 Height: 10.0 m
Data from the previous 72 hours. | See also: Recent months at Port Fairy
Date/Time
EST
Temp
°C
App
Temp
°C
Dew
Point
°C
Rel
Hum
%
Delta-T
°C
Wind Press
QNH
hPa
Press
MSL
hPa
Rain since
9am
mm
Dir  Spd
km/h
Gust
km/h
Spd
kts
Gust
kts
11/04:30pm 13.8 7.7 8.2 69 2.8 SSW 30 44 16 24 1020.7 1020.7 0.2
11/04:00pm 13.5 7.0 8.1 70 2.7 SSW 32 46 17 25 1020.5 1020.5 0.2
11/03:30pm 13.7 7.6 8.1 69 2.8 SSW 30 48 16 26 1020.4 1020.4 0.2
11/03:00pm 15.0 8.1 7.3 60 3.8 SSW 33 48 18 26 1020.0 1020.0 0.2
11/02:30pm 14.3 6.9 6.9 61 3.6 SSW 35 50 19 27 1019.7 1019.7 0.2
11/02:00pm 14.3 6.6 7.1 62 3.5 SSW 37 50 20 27 1019.5 1019.5 0.2
11/01:30pm 14.1 6.4 6.9 62 3.5 SSW 37 50 20 27 1019.4 1019.4 0.2
11/01:00pm 14.2 6.9 7.3 63 3.4 SSW 35 52 19 28 1019.5 1019.5 0.2
11/12:30pm 14.8 6.8 7.4 61 3.7 SSW 39 50 21 27 1019.5 1019.5 0.2
11/12:00pm 13.6 6.9 8.2 70 2.7 SSW 33 50 18 27 1019.6 1019.6 0.2
11/11:41am 14.2 7.2 8.6 69 2.8 SSW 35 56 19 30 1019.4 1019.4 0.2
11/11:30am 14.1 6.6 7.9 66 3.1 SSW 37 52 20 28 1019.4 1019.4 0.2
11/11:05am 13.5 7.1 9.2 75 2.2 SSW 33 54 18 29 1019.3 1019.3 0.2
11/11:00am 12.8 6.1 8.1 73 2.3 SSW 33 48 18 26 1019.2 1019.2 0.2
11/10:44am 12.1 4.9 9.1 82 1.5 SSW 37 56 20 30 1019.4 1019.4 0.2
11/10:30am 13.2 4.8 7.4 68 2.8 SW 41 52 22 28 1019.2 1019.2 0.0
11/10:02am 13.7 6.8 7.2 65 3.2 SSW 33 56 18 30 1018.9 1018.9 0.0
11/10:00am 13.8 7.5 8.8 72 2.5 SSW 32 43 17 23 1018.9 1018.9 0.0
11/09:39am 13.1 4.6 8.6 74 2.2 SSW 43 67 23 36 1018.8 1018.8 0.0
11/09:30am 13.4 5.4 7.6 68 2.8 SSW 39 54 21 29 1018.5 1018.5 0.0
11/09:06am 12.6 5.0 8.9 78 1.9 SSW 39 59 21 32 1018.3 1018.3 0.0
11/09:00am 12.8 5.2 7.5 70 2.6 SSW 37 48 20 26 1018.1 1018.1 6.8
11/08:42am 11.8 3.2 8.1 78 1.8 SSW 43 61 23 33 1018.1 1018.1 6.8
11/08:30am 11.5 2.2 9.1 85 1.2 SSW 48 67 26 36 1018.0 1018.0 6.8
11/08:06am 12.6 3.7 6.9 68 2.7 SW 43 63 23 34 1017.4 1017.4 6.6
11/08:00am 12.1 3.7 7.2 72 2.4 SW 41 56 22 30 1017.2 1017.2 6.6
11/07:30am 10.3 0.6 7.7 84 1.2 SSW 48 80 26 43 1017.1 1017.1 6.6
11/07:25am 12.8 4.1 8.5 75 2.1 SW 44 80 24 43 1016.8 1016.8 5.8
11/07:01am 12.1 3.5 6.4 68 2.7 SSW 41 59 22 32 1016.2 1016.2 5.8
11/07:00am 12.2 3.9 7.9 75 2.1 SSW 41 57 22 31 1016.2 1016.2 5.8
11/06:45am 11.9 3.5 7.4 74 2.2 SSW 41 63 22 34 1016.0 1016.0 5.8
11/06:30am 11.7 3.2 7.0 73 2.2 SSW 41 56 22 30 1015.9 1015.9 5.8
11/06:06am 12.3 2.9 7.2 71 2.5 SW 46 72 25 39 1015.5 1015.5 5.8
11/06:00am 12.3 3.0 6.1 66 2.9 SW 44 57 24 31 1015.3 1015.3 5.8
11/05:30am 11.2 2.0 8.1 81 1.5 SW 46 67 25 36 1015.0 1015.0 5.6
11/05:00am 12.2 3.8 5.4 63 3.1 SSW 39 63 21 34 1014.5 1014.5 5.6
11/04:30am 11.8 2.5 5.9 67 2.8 SW 44 63 24 34 1014.1 1014.1 5.6
11/04:00am 12.0 3.1 6.9 71 2.4 SW 43 63 23 34 1013.7 1013.7 5.4
11/03:30am 11.9 1.8 7.4 74 2.2 SW 50 72 27 39 1013.4 1013.4 5.4
11/03:25am 12.3 2.6 5.7 64 3.1 SW 46 69 25 37 1013.3 1013.3 5.4
11/03:00am 11.9 1.9 6.2 68 2.7 SW 48 63 26 34 1013.4 1013.4 5.4
11/02:30am 11.2 1.7 6.5 73 2.2 SSW 46 67 25 36 1013.3 1013.3 5.4
11/02:16am 9.8 -0.1 6.7 81 1.5 SW 48 74 26 40 1013.5 1013.5 5.4
11/02:13am 11.0 2.5 8.4 84 1.3 SW 43 74 23 40 1013.6 1013.6 5.2
11/02:10am 11.7 4.4 7.2 74 2.2 SW 35 65 19 35 1013.1 1013.1 5.2
11/02:00am 11.0 3.3 6.9 76 1.9 SW 37 52 20 28 1013.3 1013.3 5.2
11/01:30am 11.6 2.8 5.7 67 2.7 SSW 41 61 22 33 1013.3 1013.3 5.2
11/01:22am 12.0 3.8 6.7 70 2.5 SW 39 61 21 33 1013.2 1013.2 5.2
11/01:00am 11.7 1.8 6.8 72 2.3 SW 48 65 26 35 1013.1 1013.1 5.2
11/12:41am 12.0 3.6 5.6 65 3.0 SW 39 57 21 31 1012.9 1012.9 5.2
11/12:30am 11.7 3.1 6.4 70 2.5 SW 41 57 22 31 1012.9 1012.9 5.2
11/12:21am 11.0 1.0 4.5 64 2.9 SW 46 65 25 35 1012.9 1012.9 5.2
11/12:00am 10.9 2.0 6.8 76 1.9 SW 43 59 23 32 1012.8 1012.8 5.2
 
Date/Time
EST
Temp
°C
App
Temp
°C
Dew
Point
°C
Rel
Hum
%
Delta-T
°C
Wind Press
QNH
hPa
Press
MSL
hPa
Rain since
9am
mm
Dir  Spd
km/h
Gust
km/h
Spd
kts
Gust
kts
10/11:34pm 10.5 2.4 7.2 80 1.6 SW 39 57 21 31 1012.7 1012.7 5.0
10/11:30pm 9.9 2.6 7.3 84 1.2 SW 35 46 19 25 1012.6 1012.6 5.0
10/11:03pm 11.3 3.0 7.6 78 1.8 SW 41 59 22 32 1012.4 1012.4 3.0
10/11:00pm 11.2 3.3 7.9 80 1.6 SW 39 57 21 31 1012.4 1012.4 3.0
10/10:30pm 10.2 0.8 4.6 68 2.5 WSW 43 72 23 39 1012.6 1012.6 2.8
10/10:00pm 11.6 3.6 5.9 68 2.7 SW 37 56 20 30 1012.1 1012.1 2.6
10/09:30pm 11.7 1.6 7.6 76 2.0 SW 50 80 27 43 1012.1 1012.1 2.6
10/09:25pm 12.3 2.9 5.2 62 3.3 SW 44 65 24 35 1011.8 1011.8 2.6
10/09:00pm 11.6 2.1 6.5 71 2.4 SW 46 63 25 34 1011.6 1011.6 2.6
10/08:30pm 11.9 2.7 8.0 77 1.9 SW 46 74 25 40 1011.7 1011.7 2.4
10/08:00pm 11.6 2.1 6.9 73 2.2 SW 46 65 25 35 1011.3 1011.3 2.4
10/07:34pm 10.8 2.6 6.7 76 1.9 WSW 39 61 21 33 1011.0 1011.0 2.4
10/07:30pm 10.6 3.2 8.4 86 1.1 WSW 37 50 20 27 1010.9 1010.9 2.4
10/07:26pm 10.2 2.0 8.1 87 1.0 WSW 41 65 22 35 1011.0 1011.0 2.4
10/07:13pm 11.6 1.8 8.8 83 1.4 SW 50 70 27 38 1011.0 1011.0 2.0
10/07:09pm 12.4 3.5 9.1 80 1.7 SW 46 70 25 38 1010.7 1010.7 1.8
10/07:00pm 12.2 3.0 6.5 68 2.7 WSW 44 67 24 36 1010.3 1010.3 1.8
10/06:30pm 10.9 1.9 7.2 78 1.8 WSW 44 69 24 37 1010.2 1010.2 1.8
10/06:07pm 11.1 3.0 8.8 86 1.1 WSW 41 76 22 41 1010.4 1010.4 0.6
10/06:04pm 11.6 4.5 9.7 88 1.0 WSW 37 57 20 31 1010.2 1010.2 0.6
10/06:00pm 10.9 4.1 7.6 80 1.6 W 33 54 18 29 1010.1 1010.1 0.4
10/05:54pm 11.7 4.5 7.6 76 2.0 WSW 35 56 19 30 1010.0 1010.0 0.2
10/05:30pm 12.1 4.2 6.4 68 2.7 SW 37 57 20 31 1010.0 1010.0 0.2
10/05:12pm 11.4 2.8 6.7 73 2.2 WSW 41 69 22 37 1010.0 1010.0 0.2
10/05:11pm 11.6 3.6 7.3 75 2.1 WSW 39 69 21 37 1010.0 1010.0 0.2
10/05:08pm 11.9 4.7 7.8 76 2.0 WSW 35 56 19 30 1010.2 1010.2 0.2
10/05:00pm 11.5 4.3 7.6 77 1.9 WSW 35 48 19 26 1010.0 1010.0 0.2
10/04:48pm 12.5 4.2 7.6 72 2.4 WSW 41 63 22 34 1010.0 1010.0 0.0
10/04:30pm 13.2 4.8 7.2 67 2.9 SW 41 54 22 29 1009.9 1009.9 0.0
10/04:05pm 14.6 6.9 8.8 68 2.9 SW 39 59 21 32 1010.0 1010.0 0.0
10/04:00pm 14.9 6.7 8.2 64 3.4 SW 41 59 22 32 1009.8 1009.8 0.0
10/03:30pm 15.0 6.2 7.1 59 3.9 WSW 43 57 23 31 1009.5 1009.5 0.0
10/03:00pm 13.5 6.6 8.8 73 2.4 SW 35 50 19 27 1009.6 1009.6 0.0
10/02:37pm 14.9 7.5 8.2 64 3.4 WSW 37 57 20 31 1009.5 1009.5 0.0
10/02:30pm 14.4 7.2 9.2 71 2.7 SW 37 52 20 28 1009.7 1009.7 0.0
10/02:18pm 13.9 5.5 9.1 73 2.4 SW 43 61 23 33 1009.7 1009.7 0.0
10/02:00pm 15.2 7.0 8.2 63 3.5 WSW 41 52 22 28 1009.5 1009.5 0.0
10/01:30pm 13.4 5.3 8.7 73 2.4 WSW 41 61 22 33 1009.8 1009.8 0.0
10/01:02pm 14.5 6.6 8.0 65 3.2 WSW 39 57 21 31 1009.7 1009.7 0.0
10/01:00pm 14.8 6.6 8.3 65 3.3 WSW 41 56 22 30 1009.7 1009.7 0.0
10/12:30pm 14.4 6.1 7.9 65 3.2 WSW 41 63 22 34 1009.8 1009.8 0.0
10/12:00pm 14.3 5.9 9.7 74 2.4 SW 44 67 24 36 1009.9 1009.9 0.0
10/11:53am 15.6 6.8 9.7 68 3.1 WSW 46 67 25 36 1009.9 1009.9 0.0
10/11:30am 16.0 7.3 7.5 57 4.2 WSW 43 56 23 30 1009.5 1009.5 0.0
10/11:03am 15.7 8.7 8.4 62 3.7 WSW 35 56 19 30 1009.4 1009.4 0.0
10/11:00am 15.2 8.0 9.1 67 3.1 WSW 37 52 20 28 1009.5 1009.5 0.0
10/10:30am 15.4 7.0 7.4 59 4.0 WSW 41 56 22 30 1009.3 1009.3 0.0
10/10:00am 15.1 7.2 7.9 62 3.6 SW 39 52 21 28 1009.3 1009.3 0.0
10/09:30am 15.1 7.6 8.1 63 3.5 SW 37 57 20 31 1009.0 1009.0 0.0
10/09:00am 14.4 6.0 8.8 69 2.8 WSW 43 57 23 31 1008.8 1008.8 3.2
10/08:30am 13.6 5.8 11.0 84 1.4 SW 43 63 23 34 1008.3 1008.3 3.2
10/08:06am 13.1 7.6 12.5 96 0.3 WSW 33 52 18 28 1008.1 1008.1 3.0
10/08:00am 13.0 7.1 12.4 96 0.3 WSW 35 52 19 28 1008.1 1008.1 3.0
10/07:30am 13.7 8.0 12.9 95 0.4 WSW 35 46 19 25 1007.5 1007.5 1.8
10/07:19am 13.5 6.9 12.7 95 0.4 WSW 39 61 21 33 1007.4 1007.4 1.8
10/07:16am 13.4 7.0 12.1 92 0.7 W 37 61 20 33 1007.4 1007.4 1.8
10/07:02am 14.2 9.4 11.7 85 1.3 W 28 46 15 25 1007.0 1007.0 1.8
10/07:00am 13.9 9.7 11.1 83 1.5 W 24 43 13 23 1007.0 1007.0 1.8
10/06:30am 13.4 9.5 12.0 91 0.8 W 24 41 13 22 1007.0 1007.0 1.8
10/06:22am 13.7 9.3 12.8 94 0.5 W 28 46 15 25 1007.0 1007.0 1.8
10/06:00am 12.7 9.6 12.2 97 0.3 W 20 35 11 19 1007.1 1007.1 1.8
10/05:30am 12.1 10.6 11.9 99 0.1 NW 11 20 6 11 1006.8 1006.8 1.4
10/05:00am 11.5 9.4 11.3 99 0.1 WNW 13 20 7 11 1007.0 1007.0 1.2
10/04:30am 11.2 8.3 11.0 99 0.1 NW 17 28 9 15 1006.9 1006.9 0.8
10/04:00am 11.2 8.7 10.9 98 0.2 NW 15 22 8 12 1007.2 1007.2 0.6
10/03:30am 11.4 9.2 10.9 97 0.3 NW 13 19 7 10 1007.5 1007.5 0.4
10/03:00am 11.2 8.9 10.4 95 0.4 NW 13 20 7 11 1007.6 1007.6 0.2
10/02:30am 11.5 8.9 10.7 95 0.4 NW 15 22 8 12 1008.1 1008.1 0.2
10/02:00am 11.5 8.8 10.2 92 0.7 NW 15 22 8 12 1008.2 1008.2 0.2
10/01:30am 11.6 8.5 10.2 91 0.7 NNW 17 24 9 13 1008.6 1008.6 0.2
10/01:00am 11.5 9.0 9.6 88 1.0 NW 13 20 7 11 1008.9 1008.9 0.2
10/12:30am 11.5 9.0 9.6 88 1.0 NW 13 19 7 10 1009.1 1009.1 0.2
10/12:00am 11.6 9.5 9.9 89 0.9 NW 11 17 6 9 1009.5 1009.5 0.2
 
Date/Time
EST
Temp
°C
App
Temp
°C
Dew
Point
°C
Rel
Hum
%
Delta-T
°C
Wind Press
QNH
hPa
Press
MSL
hPa
Rain since
9am
mm
Dir  Spd
km/h
Gust
km/h
Spd
kts
Gust
kts
09/11:30pm 11.8 9.6 9.4 85 1.2 NW 11 13 6 7 1009.7 1009.7 0.2
09/11:00pm 12.4 10.3 9.6 83 1.4 NNW 11 17 6 9 1010.0 1010.0 0.2
09/10:30pm 13.3 10.3 9.4 77 2.0 NW 15 20 8 11 1010.4 1010.4 0.2
09/10:00pm 14.3 9.1 7.4 63 3.4 WSW 24 35 13 19 1010.5 1010.5 0.2
09/09:30pm 14.5 9.3 8.9 69 2.8 SW 26 39 14 21 1010.4 1010.4 0.2
09/09:00pm 14.5 10.7 7.5 63 3.5 W 17 24 9 13 1010.5 1010.5 0.2
09/08:30pm 14.6 10.4 7.6 63 3.5 WSW 19 26 10 14 1010.6 1010.6 0.2
09/08:00pm 14.5 10.9 6.6 59 3.8 WSW 15 22 8 12 1010.5 1010.5 0.2
09/07:30pm 14.4 10.0 6.7 60 3.7 SW 19 26 10 14 1010.4 1010.4 0.2
09/07:00pm 14.4 10.0 6.5 59 3.8 WSW 19 26 10 14 1010.3 1010.3 0.2
09/06:30pm 14.5 10.2 6.8 60 3.7 WSW 19 26 10 14 1010.2 1010.2 0.2
09/06:00pm 14.6 10.1 6.9 60 3.8 WSW 20 26 11 14 1010.1 1010.1 0.2
09/05:30pm 14.7 10.4 7.7 63 3.5 WSW 20 28 11 15 1010.1 1010.1 0.2
09/05:00pm 15.6 10.9 7.9 60 3.9 WSW 22 30 12 16 1010.2 1010.2 0.2
09/04:30pm 16.1 12.1 8.3 60 4.0 SW 19 26 10 14 1010.3 1010.3 0.2
09/04:00pm 16.3 12.2 8.0 58 4.2 WSW 19 28 10 15 1010.4 1010.4 0.2
09/03:30pm 16.5 12.2 8.0 57 4.3 WSW 20 32 11 17 1010.5 1010.5 0.2
09/03:00pm 17.2 13.3 9.6 61 4.0 SW 20 26 11 14 1010.4 1010.4 0.2
09/02:30pm 17.3 12.9 9.0 58 4.3 SW 22 30 12 16 1010.6 1010.6 0.2
09/02:00pm 15.4 11.5 9.5 68 3.1 SW 20 30 11 16 1010.9 1010.9 0.2
09/01:30pm 16.7 14.0 10.5 67 3.3 SW 15 24 8 13 1010.9 1010.9 0.2
09/01:00pm 14.9 12.1 10.1 73 2.5 WSW 15 20 8 11 1011.2 1011.2 0.2
09/12:30pm 15.6 11.8 9.9 69 3.0 SW 20 28 11 15 1011.3 1011.3 0.2
09/12:00pm 16.4 13.4 9.1 62 3.8 SSW 15 24 8 13 1011.4 1011.4 0.2
09/11:30am 15.1 12.7 10.1 72 2.6 SW 13 20 7 11 1011.4 1011.4 0.2
09/11:00am 13.9 8.4 10.5 80 1.8 SSW 30 43 16 23 1011.5 1011.5 0.2
09/10:30am 15.5 10.8 9.2 66 3.2 SSW 24 35 13 19 1011.2 1011.2 0.0
09/10:00am 16.2 11.7 10.1 67 3.2 SW 24 32 13 17 1011.2 1011.2 0.0
09/09:30am 14.8 9.5 9.8 72 2.6 SSW 28 39 15 21 1011.0 1011.0 0.0
09/09:00am 14.4 10.5 10.8 79 1.9 SW 22 32 12 17 1010.8 1010.8 5.2
09/08:30am 14.2 9.1 10.6 79 1.9 SSW 28 44 15 24 1010.7 1010.7 5.2
09/08:00am 14.5 7.9 9.9 74 2.4 SW 35 46 19 25 1010.3 1010.3 5.2
09/07:30am 14.7 8.7 10.1 74 2.4 SW 32 43 17 23 1009.7 1009.7 5.2
09/07:00am 14.5 8.0 8.9 69 2.8 SW 33 43 18 23 1009.5 1009.5 5.2
09/06:30am 14.1 8.4 9.7 75 2.3 WSW 30 43 16 23 1009.3 1009.3 5.2
09/06:00am 14.7 9.4 9.7 72 2.6 WSW 28 39 15 21 1008.9 1008.9 5.2
09/05:30am 14.9 9.6 9.7 71 2.7 SW 28 39 15 21 1008.8 1008.8 5.2
09/05:00am 14.4 8.9 7.7 64 3.3 SW 26 35 14 19 1008.6 1008.6 5.2
09/04:30am 14.6 8.0 7.9 64 3.3 SW 32 46 17 25 1008.7 1008.7 5.2
09/04:00am 14.4 8.1 7.2 62 3.5 SW 30 39 16 21 1008.7 1008.7 5.2
09/03:30am 14.5 7.6 7.3 62 3.5 SW 33 46 18 25 1008.5 1008.5 5.2
09/03:00am 14.2 7.4 7.9 66 3.1 SW 33 43 18 23 1008.4 1008.4 5.2
09/02:30am 14.2 6.8 8.4 68 2.9 SW 37 50 20 27 1008.5 1008.5 5.2
09/02:00am 14.3 7.1 9.1 71 2.7 SW 37 50 20 27 1008.2 1008.2 5.2
09/01:30am 14.7 8.3 10.7 77 2.1 SW 35 50 19 27 1008.3 1008.3 5.2
09/01:00am 14.8 8.3 11.6 81 1.7 SW 37 46 20 25 1008.1 1008.1 5.2
09/12:30am 14.8 9.9 12.5 86 1.3 SW 30 41 16 22 1008.1 1008.1 5.2
09/12:14am 14.9 9.7 12.9 88 1.1 SW 32 52 17 28 1008.1 1008.1 5.2
09/12:00am 14.8 9.6 13.3 91 0.8 SW 33 44 18 24 1007.9 1007.9 5.2
 
Date/Time
EST
Temp
°C
App
Temp
°C
Dew
Point
°C
Rel
Hum
%
Delta-T
°C
Wind Press
QNH
hPa
Press
MSL
hPa
Rain since
9am
mm
Dir  Spd
km/h
Gust
km/h
Spd
kts
Gust
kts
08/11:30pm 14.7 10.1 13.6 93 0.6 SW 30 37 16 20 1007.6 1007.6 4.8
08/11:00pm 14.5 10.6 14.3 99 0.1 SW 28 35 15 19 1007.5 1007.5 4.8
08/10:30pm 14.8 10.2 14.6 99 0.1 SW 32 48 17 26 1007.4 1007.4 4.6
08/10:00pm 15.5 12.7 15.3 99 0.1 WSW 24 33 13 18 1007.1 1007.1 3.6
08/09:30pm 16.4 13.5 16.2 99 0.1 WSW 26 35 14 19 1006.8 1006.8 2.6
08/09:00pm 16.7 17.6 16.5 99 0.1 NW 7 13 4 7 1006.2 1006.2 1.0
08/08:30pm 16.7 17.1 16.2 97 0.3 NW 9 15 5 8 1006.1 1006.1 0.8
08/08:00pm 16.8 17.5 16.2 96 0.4 NNW 7 11 4 6 1005.9 1005.9 0.6
08/07:30pm 17.0 17.7 16.0 94 0.6 NW 7 11 4 6 1006.2 1006.2 0.4
08/07:00pm 17.3 16.8 15.8 91 0.9 WNW 13 20 7 11 1006.8 1006.8 0.2
08/06:30pm 17.5 16.8 15.5 88 1.2 WNW 13 20 7 11 1006.1 1006.1 0.2
08/06:00pm 17.8 17.0 15.1 84 1.6 WNW 13 22 7 12 1005.7 1005.7 0.2
08/05:30pm 18.6 15.6 14.9 79 2.2 W 24 37 13 20 1006.2 1006.2 0.0
08/05:00pm 19.8 15.8 13.0 65 3.9 W 26 41 14 22 1006.2 1006.2 0.0

Other formats

Comma delimited format used in spreadsheet applications
http://www.bom.gov.au/fwo/IDV60801/IDV60801.94830.axf

JavaScript Object Notation format (JSON) in row-major order
http://www.bom.gov.au/fwo/IDV60801/IDV60801.94830.json

Data quality

Most of these data are generated automatically and are frequently updated. Quality checks on data are not normally performed. It is possible for incorrect values to appear. Refer to information at About Latest Weather Observations and please check the disclaimer before using these data.